Gavere, Belgium
Current Conditions -  °F | °C
As of 1:25 PM on Monday 20 Oct 2014 (Local Time) from EBCV Reporting Station
Scattered Clouds Scattered Clouds  
Wind Chill: 61°   Ceiling: Unl
Heat Index: 61°   Visibility: 6mi
Dew Point: 54°   Wind: 8mph
Humidity: 77%   Direction: 250°WSW
Pressure: 30.09"   Gusts: NA
Location:  50.93°N, 3.66°E
Report Text: EBCV 201125Z AUTO 25007KT 9999 FEW024/// SCT045/// 16/12 Q1019 BLU
Loading
Personal Weather Stations






























Interactive Weather Map
Tropical Storm Tracking
New forecast layout! Learn more

10-Day Weather Forecast

Advertisements
Track Severe Weather on mobile